createdAt,value
2023-01-12T00:01:44.043Z,74.77
2023-01-12T00:04:15.036Z,74.83
2023-01-12T00:06:42.466Z,74.85
2023-01-12T00:09:10.690Z,74.82
2023-01-12T00:11:39.028Z,74.90
2023-01-12T00:14:07.888Z,74.82
2023-01-12T00:16:35.445Z,74.79
2023-01-12T00:19:09.300Z,74.97
2023-01-12T00:21:56.627Z,74.90
2023-01-12T00:24:28.784Z,74.85
2023-01-12T00:26:57.233Z,74.89
2023-01-12T00:29:26.168Z,74.99
2023-01-12T00:31:54.521Z,75.00
2023-01-12T00:34:22.412Z,74.90
2023-01-12T00:36:49.750Z,74.96
2023-01-12T00:39:17.661Z,74.87
2023-01-12T00:42:04.114Z,74.95
2023-01-12T00:44:50.106Z,75.07
2023-01-12T00:47:18.056Z,74.96
2023-01-12T00:49:45.947Z,75.07
2023-01-12T00:52:29.839Z,75.00
2023-01-12T00:54:58.495Z,75.13
2023-01-12T00:57:25.612Z,75.02
2023-01-12T00:59:55.661Z,75.06
2023-01-12T01:02:23.308Z,75.10
2023-01-12T01:04:50.971Z,75.12
2023-01-12T01:07:18.728Z,75.24
2023-01-12T01:09:45.991Z,75.32
2023-01-12T01:12:13.483Z,75.10
2023-01-12T01:14:40.619Z,75.19
2023-01-12T01:17:07.693Z,75.19
2023-01-12T01:19:35.054Z,75.19
2023-01-12T01:22:02.249Z,75.31
2023-01-12T01:24:29.527Z,75.37
2023-01-12T01:26:56.658Z,75.35
2023-01-12T01:29:23.803Z,75.16
2023-01-12T01:31:51.082Z,75.23
2023-01-12T01:34:18.259Z,75.25
2023-01-12T01:36:45.417Z,75.45
2023-01-12T01:39:12.613Z,75.43
2023-01-12T01:41:42.093Z,75.49
2023-01-12T01:44:29.566Z,75.44
2023-01-12T01:47:08.441Z,75.43
2023-01-12T01:49:46.336Z,75.52
2023-01-12T01:52:19.493Z,75.49
2023-01-12T01:54:55.652Z,75.53
2023-01-12T01:57:26.592Z,75.56
2023-01-12T01:59:56.425Z,75.51
2023-01-12T02:02:26.488Z,75.59
2023-01-12T02:04:56.012Z,75.49
2023-01-12T02:07:23.769Z,75.66
2023-01-12T02:09:51.177Z,75.64
2023-01-12T02:12:37.179Z,75.79
2023-01-12T02:15:27.665Z,75.70
2023-01-12T02:18:24.413Z,75.64
2023-01-12T02:20:58.372Z,75.66
2023-01-12T02:23:36.195Z,75.62
2023-01-12T02:26:15.428Z,75.68
2023-01-12T02:28:58.146Z,75.81
2023-01-12T02:31:31.275Z,75.81
2023-01-12T02:34:04.305Z,75.65
2023-01-12T02:36:53.413Z,75.71
2023-01-12T02:39:29.839Z,75.59
2023-01-12T02:42:37.407Z,75.71
2023-01-12T02:45:50.336Z,75.66
2023-01-12T02:48:38.316Z,75.81
2023-01-12T02:51:32.558Z,75.74
2023-01-12T02:54:04.749Z,75.91
2023-01-12T02:56:41.122Z,75.60
2023-01-12T02:59:23.215Z,75.89
2023-01-12T03:01:52.494Z,75.98
2023-01-12T03:04:20.743Z,75.85
2023-01-12T03:06:56.913Z,75.86
2023-01-12T03:09:31.576Z,75.83
2023-01-12T03:12:06.237Z,76.03
2023-01-12T03:14:37.530Z,75.79
2023-01-12T03:17:22.879Z,76.03
2023-01-12T03:19:53.005Z,75.84
2023-01-12T03:22:21.746Z,75.98
2023-01-12T03:24:58.030Z,76.01
2023-01-12T03:27:41.412Z,75.87
2023-01-12T03:30:12.296Z,75.99
2023-01-12T03:32:39.475Z,76.12
2023-01-12T03:35:08.911Z,76.17
2023-01-12T03:37:42.370Z,76.02
2023-01-12T03:40:27.402Z,75.94
2023-01-12T03:43:11.771Z,76.05
2023-01-12T03:45:46.223Z,76.13
2023-01-12T03:48:26.455Z,76.08
2023-01-12T03:51:05.564Z,76.25
2023-01-12T03:53:34.556Z,76.28
2023-01-12T03:56:06.598Z,76.16
2023-01-12T03:58:35.548Z,76.15
2023-01-12T04:01:04.253Z,76.25
2023-01-12T04:03:31.694Z,76.18
2023-01-12T04:05:58.947Z,76.37
2023-01-12T04:08:26.140Z,76.26
2023-01-12T04:10:53.320Z,76.25
2023-01-12T04:13:20.439Z,76.22
2023-01-12T04:15:48.362Z,76.20
2023-01-12T04:18:15.768Z,76.17
2023-01-12T04:20:42.897Z,76.17
2023-01-12T04:23:10.152Z,76.21
2023-01-12T04:25:37.330Z,76.20
2023-01-12T04:28:04.815Z,76.21
2023-01-12T04:30:33.876Z,76.28
2023-01-12T04:33:08.161Z,76.21
2023-01-12T04:35:35.535Z,76.22
2023-01-12T04:38:07.649Z,76.26
2023-01-12T04:40:35.127Z,76.31
2023-01-12T04:43:02.480Z,76.35
2023-01-12T04:45:32.084Z,76.35
2023-01-12T04:48:04.788Z,76.36
2023-01-12T04:50:32.308Z,76.36
2023-01-12T04:53:02.988Z,76.25
2023-01-12T04:55:30.315Z,76.37
2023-01-12T04:57:57.589Z,76.19
2023-01-12T05:00:25.481Z,76.35
2023-01-12T05:02:59.544Z,76.44
2023-01-12T05:05:28.121Z,76.43
2023-01-12T05:08:14.590Z,76.35
2023-01-12T05:10:41.736Z,76.41
2023-01-12T05:13:08.912Z,76.46
2023-01-12T05:15:36.086Z,76.47
2023-01-12T05:18:03.267Z,76.42
2023-01-12T05:20:30.466Z,76.47
2023-01-12T05:22:57.599Z,76.42
2023-01-12T05:25:26.896Z,76.41
2023-01-12T05:27:58.016Z,76.38
2023-01-12T05:30:26.917Z,76.47
2023-01-12T05:32:54.435Z,76.56
2023-01-12T05:35:22.185Z,76.39
2023-01-12T05:37:49.688Z,76.42
2023-01-12T05:40:17.115Z,76.52
2023-01-12T05:43:03.161Z,76.54
2023-01-12T05:45:30.232Z,76.45
2023-01-12T05:47:59.103Z,76.51
2023-01-12T05:50:26.336Z,76.42
2023-01-12T05:53:08.981Z,76.51
2023-01-12T05:55:38.214Z,76.58
2023-01-12T05:58:05.757Z,76.51
2023-01-12T06:00:33.083Z,76.48
2023-01-12T06:03:02.847Z,76.34
2023-01-12T06:05:30.026Z,76.36
2023-01-12T06:07:58.473Z,76.52
2023-01-12T06:10:25.650Z,76.63
2023-01-12T06:13:11.492Z,76.53
2023-01-12T06:15:38.694Z,76.48
2023-01-12T06:18:06.409Z,76.53
2023-01-12T06:20:33.545Z,76.51
2023-01-12T06:23:02.417Z,76.53
2023-01-12T06:25:30.267Z,76.53
2023-01-12T06:27:57.772Z,76.46
2023-01-12T06:30:25.232Z,76.40
2023-01-12T06:32:52.409Z,76.32
2023-01-12T06:35:20.045Z,76.36
2023-01-12T06:37:47.538Z,76.44
2023-01-12T06:40:15.772Z,76.39
2023-01-12T06:42:43.217Z,76.24
2023-01-12T06:45:10.852Z,76.35
2023-01-12T06:47:45.049Z,76.32
2023-01-12T06:50:13.308Z,76.46
2023-01-12T06:52:40.773Z,76.37
2023-01-12T06:55:08.690Z,76.26
2023-01-12T06:57:36.091Z,76.49
2023-01-12T07:00:05.946Z,76.29
2023-01-12T07:02:33.220Z,76.43
2023-01-12T07:05:00.321Z,76.48
2023-01-12T07:07:27.614Z,76.51
2023-01-12T07:09:55.440Z,76.31
2023-01-12T07:12:22.816Z,76.42
2023-01-12T07:14:50.042Z,76.50
2023-01-12T07:17:18.010Z,76.38
2023-01-12T07:19:45.174Z,76.35
2023-01-12T07:22:12.304Z,76.32
2023-01-12T07:24:39.465Z,76.31
2023-01-12T07:27:06.692Z,76.39
2023-01-12T07:29:34.483Z,76.29
2023-01-12T07:32:02.023Z,76.20
2023-01-12T07:34:30.052Z,76.35
2023-01-12T07:36:57.743Z,76.31
2023-01-12T07:39:24.879Z,76.26
2023-01-12T07:42:12.277Z,76.46
2023-01-12T07:44:40.474Z,76.35
2023-01-12T07:47:07.867Z,76.27
2023-01-12T07:49:35.062Z,76.41
2023-01-12T07:52:02.211Z,76.39
2023-01-12T07:54:29.414Z,76.27
2023-01-12T07:56:56.920Z,76.39
2023-01-12T07:59:24.073Z,76.49
2023-01-12T08:01:53.700Z,76.36
2023-01-12T08:04:22.357Z,76.36
2023-01-12T08:06:49.527Z,76.37
2023-01-12T08:09:16.602Z,76.36
2023-01-12T08:11:43.715Z,76.39
2023-01-12T08:14:19.202Z,76.35
2023-01-12T08:16:49.851Z,76.42
2023-01-12T08:19:21.652Z,76.61
2023-01-12T08:21:57.277Z,76.48
2023-01-12T08:24:26.912Z,76.40
2023-01-12T08:26:56.680Z,76.63
2023-01-12T08:29:44.262Z,76.60
2023-01-12T08:32:13.978Z,76.57
2023-01-12T08:34:43.961Z,76.63
2023-01-12T08:37:13.831Z,76.37
2023-01-12T08:39:41.127Z,76.54
2023-01-12T08:42:08.863Z,76.47
2023-01-12T08:44:36.451Z,76.46
2023-01-12T08:47:06.266Z,76.49
2023-01-12T08:49:34.274Z,76.44
2023-01-12T08:52:01.386Z,76.49
2023-01-12T08:54:28.789Z,76.56
2023-01-12T08:56:56.046Z,76.66
2023-01-12T08:59:23.301Z,76.68
2023-01-12T09:01:50.602Z,76.76
2023-01-12T09:04:18.111Z,76.61
2023-01-12T09:06:47.323Z,76.49
2023-01-12T09:09:20.217Z,76.55
2023-01-12T09:11:48.996Z,76.47
2023-01-12T09:14:17.289Z,76.51
2023-01-12T09:16:44.534Z,76.58
2023-01-12T09:19:11.992Z,76.69
2023-01-12T09:21:41.436Z,76.60
2023-01-12T09:24:08.983Z,76.71
2023-01-12T09:26:38.971Z,76.40
2023-01-12T09:29:07.942Z,76.44
2023-01-12T09:31:37.581Z,76.39
2023-01-12T09:34:04.804Z,76.37
2023-01-12T09:36:35.589Z,76.34
2023-01-12T09:39:04.425Z,76.36
2023-01-12T09:41:54.931Z,76.37
2023-01-12T09:44:48.997Z,76.44
2023-01-12T09:47:22.359Z,76.47
2023-01-12T09:50:08.658Z,76.47
2023-01-12T09:52:43.008Z,76.51
2023-01-12T09:55:16.706Z,76.30
2023-01-12T09:58:04.260Z,76.31
2023-01-12T10:00:32.530Z,76.17
2023-01-12T10:03:16.526Z,76.14
2023-01-12T10:05:49.000Z,76.10
2023-01-12T10:08:21.735Z,75.96
2023-01-12T10:11:02.168Z,76.20
2023-01-12T10:13:48.242Z,76.15
2023-01-12T10:16:25.862Z,76.08
2023-01-12T10:18:59.493Z,76.09
2023-01-12T10:21:29.103Z,76.27
2023-01-12T10:23:57.049Z,76.20
2023-01-12T10:26:38.308Z,76.18
2023-01-12T10:29:05.566Z,76.09
2023-01-12T10:31:32.739Z,76.06
2023-01-12T10:34:07.617Z,76.04
2023-01-12T10:36:47.255Z,75.97
2023-01-12T10:39:35.503Z,75.91
2023-01-12T10:42:35.037Z,75.91
2023-01-12T10:45:14.719Z,75.87
2023-01-12T10:47:44.030Z,76.02
2023-01-12T10:50:32.933Z,76.00
2023-01-12T10:53:04.068Z,75.90
2023-01-12T10:55:35.154Z,75.75
2023-01-12T10:58:02.395Z,75.89
2023-01-12T11:00:30.479Z,75.81
2023-01-12T11:02:57.835Z,75.85
2023-01-12T11:05:38.827Z,75.84
2023-01-12T11:08:28.832Z,75.89
2023-01-12T11:10:56.076Z,76.04
2023-01-12T11:13:30.601Z,75.94
2023-01-12T11:16:28.184Z,75.95
2023-01-12T11:19:17.077Z,75.87
2023-01-12T11:21:51.443Z,75.94
2023-01-12T11:24:32.033Z,75.91
2023-01-12T11:27:06.734Z,75.85
2023-01-12T11:29:47.230Z,75.83
2023-01-12T11:32:40.223Z,75.76
2023-01-12T11:35:26.607Z,75.85
2023-01-12T11:37:58.238Z,75.78
2023-01-12T11:40:33.630Z,75.88
2023-01-12T11:43:29.556Z,75.72
2023-01-12T11:46:08.813Z,75.73
2023-01-12T11:48:47.131Z,75.81
2023-01-12T11:51:14.867Z,75.85
2023-01-12T11:53:42.517Z,75.61
2023-01-12T11:56:26.883Z,75.66
2023-01-12T11:58:57.926Z,75.77
2023-01-12T12:01:40.384Z,75.70
2023-01-12T12:04:35.324Z,75.56
2023-01-12T12:07:18.875Z,75.80
2023-01-12T12:10:22.541Z,75.78
2023-01-12T12:12:58.795Z,75.80
2023-01-12T12:15:41.874Z,75.70
2023-01-12T12:18:28.324Z,75.66
2023-01-12T12:21:33.077Z,75.58
2023-01-12T12:24:15.875Z,75.49
2023-01-12T12:26:58.256Z,75.54
2023-01-12T12:29:33.029Z,75.48
2023-01-12T12:32:09.408Z,75.50
2023-01-12T12:34:49.467Z,75.51
2023-01-12T12:37:32.123Z,75.50
2023-01-12T12:40:11.324Z,75.48
2023-01-12T12:43:35.188Z,75.40
2023-01-12T12:46:40.813Z,75.30
2023-01-12T12:49:27.133Z,75.30
2023-01-12T12:51:57.503Z,75.23
2023-01-12T12:54:26.539Z,75.30
2023-01-12T12:56:54.908Z,75.41
2023-01-12T12:59:31.336Z,75.18
2023-01-12T13:02:01.197Z,75.36
2023-01-12T13:04:43.772Z,75.19
2023-01-12T13:07:20.707Z,75.25
2023-01-12T13:09:49.376Z,75.21
2023-01-12T13:12:21.818Z,75.25
2023-01-12T13:15:18.440Z,75.38
2023-01-12T13:17:47.351Z,75.19
2023-01-12T13:20:24.932Z,75.24
2023-01-12T13:22:53.353Z,75.26
2023-01-12T13:25:20.540Z,74.90
2023-01-12T13:28:09.547Z,75.13
2023-01-12T13:30:49.048Z,75.23
2023-01-12T13:33:16.280Z,75.02
2023-01-12T13:35:47.330Z,74.98
2023-01-12T13:38:52.402Z,75.05
2023-01-12T13:41:53.179Z,75.04
2023-01-12T13:44:29.880Z,75.13
2023-01-12T13:47:10.406Z,75.14
2023-01-12T13:49:47.259Z,74.90
2023-01-12T13:52:35.937Z,75.03
2023-01-12T13:55:05.260Z,75.12
2023-01-12T13:57:32.508Z,74.92
2023-01-12T14:00:00.679Z,74.88
2023-01-12T14:02:33.100Z,74.86
2023-01-12T14:05:14.335Z,74.85
2023-01-12T14:08:13.682Z,74.92
2023-01-12T14:10:59.983Z,74.93
2023-01-12T14:13:54.258Z,74.82
2023-01-12T14:16:41.781Z,74.84
2023-01-12T14:19:28.929Z,74.84
2023-01-12T14:21:58.561Z,74.97
2023-01-12T14:24:26.383Z,74.84
2023-01-12T14:26:53.531Z,74.90
2023-01-12T14:29:20.701Z,74.74
2023-01-12T14:31:50.609Z,74.80
2023-01-12T14:34:29.107Z,74.91
2023-01-12T14:36:56.772Z,74.82
2023-01-12T14:39:27.762Z,74.85
2023-01-12T14:42:15.419Z,74.68
2023-01-12T14:45:14.238Z,74.85
2023-01-12T14:47:42.128Z,74.79
2023-01-12T14:50:22.015Z,74.79
2023-01-12T14:52:49.574Z,74.64
2023-01-12T14:55:25.549Z,74.59
2023-01-12T14:57:57.550Z,74.60
2023-01-12T15:00:28.118Z,74.61
2023-01-12T15:02:58.027Z,74.61
2023-01-12T15:05:30.349Z,74.73
2023-01-12T15:07:57.624Z,74.66
2023-01-12T15:10:37.379Z,74.42
2023-01-12T15:13:29.759Z,74.57
2023-01-12T15:16:16.186Z,74.67
2023-01-12T15:19:02.265Z,74.72
2023-01-12T15:21:48.951Z,74.59
2023-01-12T15:24:44.234Z,74.55
2023-01-12T15:27:16.280Z,74.72
2023-01-12T15:29:43.709Z,74.76
2023-01-12T15:32:48.791Z,74.59
2023-01-12T15:35:23.765Z,74.62
2023-01-12T15:37:54.291Z,74.52
2023-01-12T15:40:22.425Z,74.41
2023-01-12T15:42:53.092Z,74.45
2023-01-12T15:45:27.383Z,74.49
2023-01-12T15:47:54.717Z,74.45
2023-01-12T15:50:21.873Z,74.40
2023-01-12T15:52:51.241Z,74.49
2023-01-12T15:55:21.279Z,74.43
2023-01-12T15:57:48.976Z,74.38
2023-01-12T16:00:19.667Z,74.46
2023-01-12T16:02:50.578Z,74.40
2023-01-12T16:05:21.531Z,74.50
2023-01-12T16:07:49.812Z,74.42
2023-01-12T16:10:17.890Z,74.35
2023-01-12T16:12:46.066Z,74.57
2023-01-12T16:15:20.569Z,74.34
2023-01-12T16:17:48.249Z,74.43
2023-01-12T16:20:17.140Z,74.38
2023-01-12T16:22:45.567Z,74.31
2023-01-12T16:25:14.101Z,74.37
2023-01-12T16:27:41.622Z,74.46
2023-01-12T16:30:14.032Z,74.41
2023-01-12T16:32:47.246Z,74.22
2023-01-12T16:35:15.839Z,74.30
2023-01-12T16:37:44.759Z,74.39
2023-01-12T16:40:12.799Z,74.29
2023-01-12T16:42:39.933Z,74.31
2023-01-12T16:45:07.386Z,74.33
2023-01-12T16:47:34.592Z,74.24
2023-01-12T16:50:01.856Z,74.22
2023-01-12T16:52:29.229Z,74.23
2023-01-12T16:54:56.362Z,74.16
2023-01-12T16:57:23.544Z,74.35
2023-01-12T16:59:51.281Z,74.19
2023-01-12T17:02:18.986Z,74.12
2023-01-12T17:04:48.642Z,74.12
2023-01-12T17:07:16.034Z,74.24
2023-01-12T17:09:43.726Z,74.43
2023-01-12T17:12:11.573Z,74.23
2023-01-12T17:14:38.984Z,74.23
2023-01-12T17:17:08.516Z,74.32
2023-01-12T17:19:38.358Z,74.16
2023-01-12T17:22:08.107Z,74.24
2023-01-12T17:24:39.738Z,74.12
2023-01-12T17:27:09.161Z,74.13
2023-01-12T17:29:37.101Z,74.17
2023-01-12T17:32:06.220Z,73.96
2023-01-12T17:34:37.057Z,74.04
2023-01-12T17:37:08.207Z,74.05
2023-01-12T17:39:37.235Z,73.89
2023-01-12T17:42:23.134Z,73.80
2023-01-12T17:44:50.759Z,73.93
2023-01-12T17:47:17.960Z,73.84
2023-01-12T17:49:47.827Z,73.91
2023-01-12T17:52:15.162Z,73.91
2023-01-12T17:54:42.922Z,73.91
2023-01-12T17:57:10.042Z,73.98
2023-01-12T17:59:37.422Z,73.94
2023-01-12T18:02:04.871Z,73.95
2023-01-12T18:04:32.419Z,73.93
2023-01-12T18:06:59.645Z,73.94
2023-01-12T18:09:28.187Z,73.85
2023-01-12T18:11:55.391Z,74.03
2023-01-12T18:14:24.604Z,73.94
2023-01-12T18:16:51.815Z,73.98
2023-01-12T18:19:19.057Z,73.93
2023-01-12T18:21:46.236Z,73.94
2023-01-12T18:24:13.441Z,74.02
2023-01-12T18:26:40.615Z,73.94
2023-01-12T18:29:08.000Z,74.01
2023-01-12T18:31:39.959Z,73.99
2023-01-12T18:34:08.977Z,73.88
2023-01-12T18:36:40.980Z,73.87
2023-01-12T18:39:12.572Z,73.94
2023-01-12T18:41:58.344Z,73.97
2023-01-12T18:44:25.692Z,73.84
2023-01-12T18:47:11.816Z,73.81
2023-01-12T18:49:41.965Z,73.97
2023-01-12T18:52:30.467Z,73.98
2023-01-12T18:54:58.994Z,73.89
2023-01-12T18:57:28.487Z,73.96
2023-01-12T19:00:00.555Z,73.99
2023-01-12T19:02:28.816Z,73.87
2023-01-12T19:05:15.880Z,73.92
2023-01-12T19:08:09.913Z,73.71
2023-01-12T19:10:37.038Z,73.87
2023-01-12T19:13:22.903Z,73.78
2023-01-12T19:16:09.082Z,73.78
2023-01-12T19:18:40.479Z,73.79
2023-01-12T19:21:47.458Z,73.89
2023-01-12T19:24:33.325Z,73.75
2023-01-12T19:27:19.607Z,73.81
2023-01-12T19:29:47.861Z,73.91
2023-01-12T19:32:15.177Z,73.78
2023-01-12T19:34:42.433Z,73.80
2023-01-12T19:37:09.659Z,73.78
2023-01-12T19:39:40.613Z,73.76
2023-01-12T19:42:28.177Z,73.69
2023-01-12T19:44:56.215Z,73.85
2023-01-12T19:47:23.399Z,73.78
2023-01-12T19:49:50.551Z,73.73
2023-01-12T19:52:17.751Z,73.76
2023-01-12T19:54:44.902Z,73.80
2023-01-12T19:57:12.130Z,73.87
2023-01-12T19:59:39.264Z,73.85
2023-01-12T20:02:06.746Z,73.83
2023-01-12T20:04:34.555Z,73.86
2023-01-12T20:07:01.759Z,73.77
2023-01-12T20:09:28.962Z,73.81
2023-01-12T20:11:56.186Z,73.72
2023-01-12T20:14:23.362Z,73.52
2023-01-12T20:16:50.474Z,73.65
2023-01-12T20:19:20.778Z,73.64
2023-01-12T20:21:48.584Z,73.63
2023-01-12T20:24:16.168Z,73.77
2023-01-12T20:26:43.375Z,73.64
2023-01-12T20:29:10.572Z,73.54
2023-01-12T20:31:37.991Z,73.69
2023-01-12T20:34:05.206Z,73.70
2023-01-12T20:36:32.380Z,73.55
2023-01-12T20:39:01.985Z,73.49
2023-01-12T20:41:29.249Z,73.49
2023-01-12T20:43:56.493Z,73.50
2023-01-12T20:46:24.046Z,73.53
2023-01-12T20:48:51.226Z,73.54
2023-01-12T20:51:18.361Z,73.61
2023-01-12T20:53:45.603Z,73.64
2023-01-12T20:56:12.884Z,73.57
2023-01-12T20:58:40.085Z,73.53
2023-01-12T21:01:12.144Z,73.39
2023-01-12T21:03:40.052Z,73.41
2023-01-12T21:06:16.617Z,73.55
2023-01-12T21:08:45.581Z,73.55
2023-01-12T21:11:15.881Z,73.61
2023-01-12T21:13:43.677Z,73.25
2023-01-12T21:16:18.194Z,73.63
2023-01-12T21:18:46.105Z,73.54
2023-01-12T21:21:13.404Z,73.39
2023-01-12T21:23:40.549Z,73.60
2023-01-12T21:26:08.378Z,73.54
2023-01-12T21:28:38.510Z,73.59
2023-01-12T21:31:08.618Z,73.51
2023-01-12T21:33:35.979Z,73.50
2023-01-12T21:36:03.737Z,73.40
2023-01-12T21:38:31.796Z,73.55
2023-01-12T21:41:04.017Z,73.47
2023-01-12T21:43:32.150Z,73.54
2023-01-12T21:46:09.369Z,73.47
2023-01-12T21:48:37.085Z,73.36
2023-01-12T21:51:08.774Z,73.38
2023-01-12T21:53:36.157Z,73.44
2023-01-12T21:56:05.599Z,73.52
2023-01-12T21:58:35.128Z,73.49
2023-01-12T22:01:13.564Z,73.53
2023-01-12T22:03:41.449Z,73.33
2023-01-12T22:06:12.947Z,73.39
2023-01-12T22:08:41.997Z,73.47
2023-01-12T22:11:14.345Z,73.28
2023-01-12T22:13:42.144Z,73.32
2023-01-12T22:16:11.868Z,73.43
2023-01-12T22:18:39.956Z,73.48
2023-01-12T22:21:09.706Z,73.57
2023-01-12T22:23:37.756Z,73.54
2023-01-12T22:26:07.303Z,73.43
2023-01-12T22:28:35.969Z,73.57
2023-01-12T22:31:15.151Z,73.56
2023-01-12T22:33:58.761Z,73.46
2023-01-12T22:36:25.938Z,73.46
2023-01-12T22:38:53.166Z,73.49
2023-01-12T22:41:22.446Z,73.44
2023-01-12T22:43:49.740Z,73.48
2023-01-12T22:46:25.721Z,73.51
2023-01-12T22:48:55.421Z,73.50
2023-01-12T22:51:26.762Z,73.40
2023-01-12T22:53:55.841Z,73.51
2023-01-12T22:56:23.604Z,73.45
2023-01-12T22:58:54.325Z,73.63
2023-01-12T23:01:23.161Z,73.50
2023-01-12T23:03:54.610Z,73.51
2023-01-12T23:06:22.660Z,73.37
2023-01-12T23:08:50.323Z,73.49
2023-01-12T23:11:26.235Z,73.70
2023-01-12T23:13:57.131Z,73.41
2023-01-12T23:16:25.723Z,73.53
2023-01-12T23:18:55.581Z,73.41
2023-01-12T23:21:26.700Z,73.50
2023-01-12T23:23:56.663Z,73.41
2023-01-12T23:26:26.581Z,73.62
2023-01-12T23:28:56.418Z,73.52
2023-01-12T23:31:27.447Z,73.45
2023-01-12T23:33:55.247Z,73.51
2023-01-12T23:36:25.037Z,73.55
2023-01-12T23:39:01.243Z,73.54
2023-01-12T23:41:30.821Z,73.44
2023-01-12T23:44:00.697Z,73.53
2023-01-12T23:46:30.588Z,73.47
2023-01-12T23:48:58.359Z,73.53
2023-01-12T23:51:27.223Z,73.57
2023-01-12T23:54:01.613Z,73.62
2023-01-12T23:56:32.801Z,73.46
2023-01-12T23:59:00.136Z,73.67
